sensor_id;sensor_type;location;lat;lon;timestamp;P1;durP1;ratioP1;P2;durP2;ratioP2
60243;SDS011;46106;51.468;5.814;2023-12-04T00:00:38;47.92;;;19.35;;
60243;SDS011;46106;51.468;5.814;2023-12-04T00:03:04;44.83;;;18.67;;
60243;SDS011;46106;51.468;5.814;2023-12-04T00:05:29;52.45;;;19.63;;
60243;SDS011;46106;51.468;5.814;2023-12-04T00:07:58;47.92;;;17.30;;
60243;SDS011;46106;51.468;5.814;2023-12-04T00:10:26;41.63;;;16.83;;
60243;SDS011;46106;51.468;5.814;2023-12-04T00:12:52;49.80;;;17.17;;
60243;SDS011;46106;51.468;5.814;2023-12-04T00:15:19;42.95;;;17.17;;
60243;SDS011;46106;51.468;5.814;2023-12-04T00:17:45;55.63;;;20.05;;
60243;SDS011;46106;51.468;5.814;2023-12-04T00:20:10;49.45;;;18.23;;
60243;SDS011;46106;51.468;5.814;2023-12-04T00:22:38;55.08;;;20.25;;
60243;SDS011;46106;51.468;5.814;2023-12-04T00:25:05;53.88;;;19.25;;
60243;SDS011;46106;51.468;5.814;2023-12-04T00:27:31;46.70;;;18.10;;
60243;SDS011;46106;51.468;5.814;2023-12-04T00:29:57;47.88;;;18.15;;
60243;SDS011;46106;51.468;5.814;2023-12-04T00:32:24;47.08;;;17.10;;
60243;SDS011;46106;51.468;5.814;2023-12-04T00:34:49;44.90;;;16.00;;
60243;SDS011;46106;51.468;5.814;2023-12-04T00:37:15;51.20;;;18.58;;
60243;SDS011;46106;51.468;5.814;2023-12-04T00:39:40;43.80;;;17.92;;
60243;SDS011;46106;51.468;5.814;2023-12-04T00:42:06;41.42;;;15.95;;
60243;SDS011;46106;51.468;5.814;2023-12-04T00:44:31;55.08;;;19.42;;
60243;SDS011;46106;51.468;5.814;2023-12-04T00:46:57;44.65;;;18.17;;
60243;SDS011;46106;51.468;5.814;2023-12-04T00:49:22;48.60;;;17.52;;
60243;SDS011;46106;51.468;5.814;2023-12-04T00:51:50;48.53;;;17.52;;
60243;SDS011;46106;51.468;5.814;2023-12-04T00:54:15;46.83;;;17.75;;
60243;SDS011;46106;51.468;5.814;2023-12-04T00:56:41;40.33;;;16.73;;
60243;SDS011;46106;51.468;5.814;2023-12-04T00:59:07;39.97;;;15.77;;
60243;SDS011;46106;51.468;5.814;2023-12-04T01:01:37;52.30;;;20.42;;
60243;SDS011;46106;51.468;5.814;2023-12-04T01:04:03;39.25;;;16.48;;
60243;SDS011;46106;51.468;5.814;2023-12-04T01:06:30;44.80;;;17.15;;
60243;SDS011;46106;51.468;5.814;2023-12-04T01:08:55;40.83;;;16.17;;
60243;SDS011;46106;51.468;5.814;2023-12-04T01:11:21;38.08;;;15.80;;
60243;SDS011;46106;51.468;5.814;2023-12-04T01:13:48;38.90;;;15.73;;
60243;SDS011;46106;51.468;5.814;2023-12-04T01:16:14;33.88;;;14.10;;
60243;SDS011;46106;51.468;5.814;2023-12-04T01:18:40;36.28;;;14.40;;
60243;SDS011;46106;51.468;5.814;2023-12-04T01:21:06;37.55;;;14.77;;
60243;SDS011;46106;51.468;5.814;2023-12-04T01:23:33;41.75;;;17.35;;
60243;SDS011;46106;51.468;5.814;2023-12-04T01:25:59;37.42;;;15.57;;
60243;SDS011;46106;51.468;5.814;2023-12-04T01:28:25;36.53;;;15.23;;
60243;SDS011;46106;51.468;5.814;2023-12-04T01:30:52;36.65;;;15.13;;
60243;SDS011;46106;51.468;5.814;2023-12-04T01:33:17;37.42;;;14.35;;
60243;SDS011;46106;51.468;5.814;2023-12-04T01:35:43;46.33;;;15.18;;
60243;SDS011;46106;51.468;5.814;2023-12-04T01:38:08;38.17;;;14.82;;
60243;SDS011;46106;51.468;5.814;2023-12-04T01:40:34;39.45;;;15.57;;
60243;SDS011;46106;51.468;5.814;2023-12-04T01:42:59;45.70;;;15.45;;
60243;SDS011;46106;51.468;5.814;2023-12-04T01:45:25;37.58;;;14.85;;
60243;SDS011;46106;51.468;5.814;2023-12-04T01:47:50;42.58;;;14.95;;
60243;SDS011;46106;51.468;5.814;2023-12-04T01:50:16;49.05;;;15.77;;
60243;SDS011;46106;51.468;5.814;2023-12-04T01:52:47;41.22;;;16.27;;
60243;SDS011;46106;51.468;5.814;2023-12-04T01:55:14;37.47;;;14.30;;
60243;SDS011;46106;51.468;5.814;2023-12-04T01:57:40;34.75;;;14.57;;
60243;SDS011;46106;51.468;5.814;2023-12-04T02:00:06;41.90;;;16.00;;
60243;SDS011;46106;51.468;5.814;2023-12-04T02:02:37;34.42;;;15.15;;
60243;SDS011;46106;51.468;5.814;2023-12-04T02:05:09;37.75;;;14.70;;
60243;SDS011;46106;51.468;5.814;2023-12-04T02:07:36;34.33;;;14.80;;
60243;SDS011;46106;51.468;5.814;2023-12-04T02:10:09;37.08;;;14.45;;
60243;SDS011;46106;51.468;5.814;2023-12-04T02:12:35;38.40;;;16.40;;
60243;SDS011;46106;51.468;5.814;2023-12-04T02:15:00;35.00;;;15.25;;
60243;SDS011;46106;51.468;5.814;2023-12-04T02:17:26;36.42;;;14.90;;
60243;SDS011;46106;51.468;5.814;2023-12-04T02:19:54;36.38;;;15.60;;
60243;SDS011;46106;51.468;5.814;2023-12-04T02:22:24;35.30;;;14.38;;
60243;SDS011;46106;51.468;5.814;2023-12-04T02:24:50;37.47;;;15.02;;
60243;SDS011;46106;51.468;5.814;2023-12-04T02:27:16;33.70;;;13.60;;
60243;SDS011;46106;51.468;5.814;2023-12-04T02:29:52;41.70;;;16.40;;
60243;SDS011;46106;51.468;5.814;2023-12-04T02:32:22;47.95;;;17.98;;
60243;SDS011;46106;51.468;5.814;2023-12-04T02:34:50;43.35;;;16.73;;
60243;SDS011;46106;51.468;5.814;2023-12-04T02:37:19;38.42;;;16.90;;
60243;SDS011;46106;51.468;5.814;2023-12-04T02:39:46;37.45;;;14.82;;
60243;SDS011;46106;51.468;5.814;2023-12-04T02:42:15;35.47;;;14.77;;
60243;SDS011;46106;51.468;5.814;2023-12-04T02:44:42;34.95;;;15.60;;
60243;SDS011;46106;51.468;5.814;2023-12-04T02:47:08;34.70;;;14.65;;
60243;SDS011;46106;51.468;5.814;2023-12-04T02:49:35;39.83;;;15.60;;
60243;SDS011;46106;51.468;5.814;2023-12-04T02:52:00;28.88;;;13.77;;
60243;SDS011;46106;51.468;5.814;2023-12-04T02:54:27;32.55;;;14.15;;
60243;SDS011;46106;51.468;5.814;2023-12-04T02:56:55;30.90;;;13.88;;
60243;SDS011;46106;51.468;5.814;2023-12-04T02:59:20;32.63;;;13.75;;
60243;SDS011;46106;51.468;5.814;2023-12-04T03:01:47;25.92;;;11.70;;
60243;SDS011;46106;51.468;5.814;2023-12-04T03:04:12;37.13;;;14.10;;
60243;SDS011;46106;51.468;5.814;2023-12-04T03:06:44;38.90;;;15.18;;
60243;SDS011;46106;51.468;5.814;2023-12-04T03:09:09;33.92;;;12.68;;
60243;SDS011;46106;51.468;5.814;2023-12-04T03:11:39;33.80;;;11.75;;
60243;SDS011;46106;51.468;5.814;2023-12-04T03:14:05;31.58;;;13.48;;
60243;SDS011;46106;51.468;5.814;2023-12-04T03:16:31;31.08;;;12.77;;
60243;SDS011;46106;51.468;5.814;2023-12-04T03:18:57;28.17;;;12.85;;
60243;SDS011;46106;51.468;5.814;2023-12-04T03:21:22;30.33;;;12.32;;
60243;SDS011;46106;51.468;5.814;2023-12-04T03:23:47;37.65;;;14.45;;
60243;SDS011;46106;51.468;5.814;2023-12-04T03:26:13;28.40;;;11.93;;
60243;SDS011;46106;51.468;5.814;2023-12-04T03:28:38;24.10;;;11.05;;
60243;SDS011;46106;51.468;5.814;2023-12-04T03:31:05;29.60;;;12.52;;
60243;SDS011;46106;51.468;5.814;2023-12-04T03:33:32;28.50;;;11.93;;
60243;SDS011;46106;51.468;5.814;2023-12-04T03:36:01;29.00;;;12.55;;
60243;SDS011;46106;51.468;5.814;2023-12-04T03:38:27;22.58;;;10.75;;
60243;SDS011;46106;51.468;5.814;2023-12-04T03:40:53;25.92;;;10.45;;
60243;SDS011;46106;51.468;5.814;2023-12-04T03:43:18;25.52;;;10.90;;
60243;SDS011;46106;51.468;5.814;2023-12-04T03:45:43;28.17;;;12.10;;
60243;SDS011;46106;51.468;5.814;2023-12-04T03:48:09;22.38;;;10.75;;
60243;SDS011;46106;51.468;5.814;2023-12-04T03:50:35;24.50;;;11.63;;
60243;SDS011;46106;51.468;5.814;2023-12-04T03:53:00;23.92;;;10.43;;
60243;SDS011;46106;51.468;5.814;2023-12-04T03:55:26;25.00;;;11.20;;
60243;SDS011;46106;51.468;5.814;2023-12-04T03:57:52;24.05;;;11.23;;
60243;SDS011;46106;51.468;5.814;2023-12-04T04:00:18;22.75;;;10.23;;
60243;SDS011;46106;51.468;5.814;2023-12-04T04:02:44;26.80;;;11.32;;
60243;SDS011;46106;51.468;5.814;2023-12-04T04:05:10;25.45;;;11.82;;
60243;SDS011;46106;51.468;5.814;2023-12-04T04:07:35;22.27;;;11.85;;
60243;SDS011;46106;51.468;5.814;2023-12-04T04:10:01;23.00;;;10.20;;
60243;SDS011;46106;51.468;5.814;2023-12-04T04:12:29;25.13;;;10.70;;
60243;SDS011;46106;51.468;5.814;2023-12-04T04:14:56;29.85;;;12.95;;
60243;SDS011;46106;51.468;5.814;2023-12-04T04:17:22;24.15;;;9.38;;
60243;SDS011;46106;51.468;5.814;2023-12-04T04:19:50;29.10;;;10.82;;
60243;SDS011;46106;51.468;5.814;2023-12-04T04:22:17;24.17;;;10.50;;
60243;SDS011;46106;51.468;5.814;2023-12-04T04:24:43;26.33;;;11.02;;
60243;SDS011;46106;51.468;5.814;2023-12-04T04:27:09;24.20;;;11.32;;
60243;SDS011;46106;51.468;5.814;2023-12-04T04:29:35;25.08;;;11.35;;
60243;SDS011;46106;51.468;5.814;2023-12-04T04:32:00;25.40;;;10.57;;
60243;SDS011;46106;51.468;5.814;2023-12-04T04:34:29;22.77;;;9.88;;
60243;SDS011;46106;51.468;5.814;2023-12-04T04:36:54;24.55;;;10.77;;
60243;SDS011;46106;51.468;5.814;2023-12-04T04:39:20;20.92;;;9.98;;
60243;SDS011;46106;51.468;5.814;2023-12-04T04:41:45;25.35;;;11.32;;
60243;SDS011;46106;51.468;5.814;2023-12-04T04:44:12;21.27;;;9.98;;
60243;SDS011;46106;51.468;5.814;2023-12-04T04:46:37;22.05;;;10.45;;
60243;SDS011;46106;51.468;5.814;2023-12-04T04:49:03;22.75;;;10.50;;
60243;SDS011;46106;51.468;5.814;2023-12-04T04:51:33;21.15;;;10.02;;
60243;SDS011;46106;51.468;5.814;2023-12-04T04:54:00;26.38;;;10.27;;
60243;SDS011;46106;51.468;5.814;2023-12-04T04:56:26;23.42;;;9.82;;
60243;SDS011;46106;51.468;5.814;2023-12-04T04:58:51;23.63;;;10.02;;
60243;SDS011;46106;51.468;5.814;2023-12-04T05:01:17;19.33;;;9.60;;
60243;SDS011;46106;51.468;5.814;2023-12-04T05:03:42;22.30;;;9.48;;
60243;SDS011;46106;51.468;5.814;2023-12-04T05:06:09;18.90;;;9.38;;
60243;SDS011;46106;51.468;5.814;2023-12-04T05:08:35;20.60;;;8.90;;
60243;SDS011;46106;51.468;5.814;2023-12-04T05:11:01;23.50;;;9.80;;
60243;SDS011;46106;51.468;5.814;2023-12-04T05:13:26;21.77;;;8.73;;
60243;SDS011;46106;51.468;5.814;2023-12-04T05:15:52;16.05;;;8.48;;
60243;SDS011;46106;51.468;5.814;2023-12-04T05:18:18;19.08;;;8.82;;
60243;SDS011;46106;51.468;5.814;2023-12-04T05:20:44;19.45;;;9.65;;
60243;SDS011;46106;51.468;5.814;2023-12-04T05:23:10;17.35;;;9.20;;
60243;SDS011;46106;51.468;5.814;2023-12-04T05:25:35;22.45;;;9.32;;
60243;SDS011;46106;51.468;5.814;2023-12-04T05:28:01;14.93;;;8.18;;
60243;SDS011;46106;51.468;5.814;2023-12-04T05:30:30;18.27;;;8.13;;
60243;SDS011;46106;51.468;5.814;2023-12-04T05:32:55;17.00;;;8.52;;
60243;SDS011;46106;51.468;5.814;2023-12-04T05:35:21;20.77;;;8.35;;
60243;SDS011;46106;51.468;5.814;2023-12-04T05:37:49;17.02;;;7.80;;
60243;SDS011;46106;51.468;5.814;2023-12-04T05:40:15;20.30;;;8.77;;
60243;SDS011;46106;51.468;5.814;2023-12-04T05:42:40;15.38;;;8.00;;
60243;SDS011;46106;51.468;5.814;2023-12-04T05:45:06;18.67;;;7.97;;
60243;SDS011;46106;51.468;5.814;2023-12-04T05:47:32;20.42;;;8.38;;
60243;SDS011;46106;51.468;5.814;2023-12-04T05:49:58;17.75;;;8.27;;
60243;SDS011;46106;51.468;5.814;2023-12-04T05:52:23;17.55;;;8.85;;
60243;SDS011;46106;51.468;5.814;2023-12-04T05:54:49;20.50;;;7.47;;
60243;SDS011;46106;51.468;5.814;2023-12-04T05:57:14;14.35;;;7.95;;
60243;SDS011;46106;51.468;5.814;2023-12-04T05:59:41;15.07;;;7.85;;
60243;SDS011;46106;51.468;5.814;2023-12-04T06:02:06;16.42;;;7.55;;
60243;SDS011;46106;51.468;5.814;2023-12-04T06:04:32;13.40;;;7.28;;
60243;SDS011;46106;51.468;5.814;2023-12-04T06:06:57;11.75;;;6.65;;
60243;SDS011;46106;51.468;5.814;2023-12-04T06:09:24;14.27;;;6.93;;
60243;SDS011;46106;51.468;5.814;2023-12-04T06:11:50;12.52;;;7.28;;
60243;SDS011;46106;51.468;5.814;2023-12-04T06:14:16;23.20;;;8.10;;
60243;SDS011;46106;51.468;5.814;2023-12-04T06:16:43;12.25;;;6.10;;
60243;SDS011;46106;51.468;5.814;2023-12-04T06:19:08;14.55;;;7.60;;
60243;SDS011;46106;51.468;5.814;2023-12-04T06:21:35;13.27;;;6.57;;
60243;SDS011;46106;51.468;5.814;2023-12-04T06:24:00;20.00;;;7.15;;
60243;SDS011;46106;51.468;5.814;2023-12-04T06:26:27;17.40;;;6.55;;
60243;SDS011;46106;51.468;5.814;2023-12-04T06:28:56;15.00;;;7.15;;
60243;SDS011;46106;51.468;5.814;2023-12-04T06:31:22;17.02;;;7.45;;
60243;SDS011;46106;51.468;5.814;2023-12-04T06:33:51;11.80;;;6.43;;
60243;SDS011;46106;51.468;5.814;2023-12-04T06:36:17;11.52;;;5.70;;
60243;SDS011;46106;51.468;5.814;2023-12-04T06:38:46;15.45;;;6.90;;
60243;SDS011;46106;51.468;5.814;2023-12-04T06:41:15;13.02;;;6.45;;
60243;SDS011;46106;51.468;5.814;2023-12-04T06:43:43;13.82;;;6.95;;
60243;SDS011;46106;51.468;5.814;2023-12-04T06:46:09;13.38;;;6.60;;
60243;SDS011;46106;51.468;5.814;2023-12-04T06:48:40;18.00;;;6.95;;
60243;SDS011;46106;51.468;5.814;2023-12-04T06:51:07;13.00;;;6.47;;
60243;SDS011;46106;51.468;5.814;2023-12-04T06:53:33;13.15;;;6.35;;
60243;SDS011;46106;51.468;5.814;2023-12-04T06:55:58;13.90;;;6.65;;
60243;SDS011;46106;51.468;5.814;2023-12-04T06:58:25;10.25;;;6.60;;
60243;SDS011;46106;51.468;5.814;2023-12-04T07:00:50;11.02;;;6.05;;
60243;SDS011;46106;51.468;5.814;2023-12-04T07:03:19;12.07;;;6.00;;
60243;SDS011;46106;51.468;5.814;2023-12-04T07:05:44;14.65;;;6.53;;
60243;SDS011;46106;51.468;5.814;2023-12-04T07:08:10;12.57;;;6.22;;
60243;SDS011;46106;51.468;5.814;2023-12-04T07:10:35;13.68;;;5.75;;
60243;SDS011;46106;51.468;5.814;2023-12-04T07:13:01;12.48;;;6.25;;
60243;SDS011;46106;51.468;5.814;2023-12-04T07:15:26;9.88;;;5.47;;
60243;SDS011;46106;51.468;5.814;2023-12-04T07:17:52;10.90;;;5.25;;
60243;SDS011;46106;51.468;5.814;2023-12-04T07:20:17;11.35;;;5.50;;
60243;SDS011;46106;51.468;5.814;2023-12-04T07:22:43;9.95;;;5.47;;
60243;SDS011;46106;51.468;5.814;2023-12-04T07:25:09;14.35;;;5.75;;
60243;SDS011;46106;51.468;5.814;2023-12-04T07:27:41;11.63;;;5.68;;
60243;SDS011;46106;51.468;5.814;2023-12-04T07:30:07;10.98;;;5.47;;
60243;SDS011;46106;51.468;5.814;2023-12-04T07:32:32;10.90;;;5.88;;
60243;SDS011;46106;51.468;5.814;2023-12-04T07:34:58;13.27;;;5.80;;
60243;SDS011;46106;51.468;5.814;2023-12-04T07:37:27;10.95;;;5.88;;
60243;SDS011;46106;51.468;5.814;2023-12-04T07:39:55;12.00;;;5.50;;
60243;SDS011;46106;51.468;5.814;2023-12-04T07:42:21;14.20;;;5.70;;
60243;SDS011;46106;51.468;5.814;2023-12-04T07:44:47;10.90;;;5.78;;
60243;SDS011;46106;51.468;5.814;2023-12-04T07:47:12;10.38;;;6.00;;
60243;SDS011;46106;51.468;5.814;2023-12-04T07:49:38;9.77;;;5.10;;
60243;SDS011;46106;51.468;5.814;2023-12-04T07:52:03;10.40;;;4.82;;
60243;SDS011;46106;51.468;5.814;2023-12-04T07:54:29;12.30;;;6.40;;
60243;SDS011;46106;51.468;5.814;2023-12-04T07:56:54;12.77;;;5.07;;
60243;SDS011;46106;51.468;5.814;2023-12-04T07:59:20;10.52;;;5.80;;
60243;SDS011;46106;51.468;5.814;2023-12-04T08:01:45;10.48;;;5.35;;
60243;SDS011;46106;51.468;5.814;2023-12-04T08:04:11;10.35;;;5.65;;
60243;SDS011;46106;51.468;5.814;2023-12-04T08:06:36;11.13;;;5.20;;
60243;SDS011;46106;51.468;5.814;2023-12-04T08:09:02;10.07;;;5.35;;
60243;SDS011;46106;51.468;5.814;2023-12-04T08:11:28;11.07;;;6.30;;
60243;SDS011;46106;51.468;5.814;2023-12-04T08:13:53;12.13;;;5.57;;
60243;SDS011;46106;51.468;5.814;2023-12-04T08:16:18;11.77;;;6.68;;
60243;SDS011;46106;51.468;5.814;2023-12-04T08:18:45;15.55;;;6.85;;
60243;SDS011;46106;51.468;5.814;2023-12-04T08:21:11;12.43;;;6.35;;
60243;SDS011;46106;51.468;5.814;2023-12-04T08:23:37;14.45;;;6.82;;
60243;SDS011;46106;51.468;5.814;2023-12-04T08:26:02;10.40;;;5.57;;
60243;SDS011;46106;51.468;5.814;2023-12-04T08:28:28;13.10;;;6.50;;
60243;SDS011;46106;51.468;5.814;2023-12-04T08:30:54;14.32;;;5.93;;
60243;SDS011;46106;51.468;5.814;2023-12-04T08:33:19;12.32;;;5.28;;
60243;SDS011;46106;51.468;5.814;2023-12-04T08:35:45;12.93;;;6.57;;
60243;SDS011;46106;51.468;5.814;2023-12-04T08:38:11;10.75;;;6.05;;
60243;SDS011;46106;51.468;5.814;2023-12-04T08:40:36;19.88;;;7.45;;
60243;SDS011;46106;51.468;5.814;2023-12-04T08:43:02;13.98;;;7.00;;
60243;SDS011;46106;51.468;5.814;2023-12-04T08:45:29;9.43;;;5.55;;
60243;SDS011;46106;51.468;5.814;2023-12-04T08:47:54;10.95;;;5.40;;
60243;SDS011;46106;51.468;5.814;2023-12-04T08:50:20;10.27;;;5.93;;
60243;SDS011;46106;51.468;5.814;2023-12-04T08:52:46;12.55;;;7.05;;
60243;SDS011;46106;51.468;5.814;2023-12-04T08:55:11;14.88;;;6.65;;
60243;SDS011;46106;51.468;5.814;2023-12-04T08:57:37;16.77;;;7.97;;
60243;SDS011;46106;51.468;5.814;2023-12-04T09:00:03;13.85;;;6.88;;
60243;SDS011;46106;51.468;5.814;2023-12-04T09:02:29;12.73;;;6.50;;
60243;SDS011;46106;51.468;5.814;2023-12-04T09:04:55;14.23;;;7.15;;
60243;SDS011;46106;51.468;5.814;2023-12-04T09:07:21;14.02;;;7.57;;
60243;SDS011;46106;51.468;5.814;2023-12-04T09:09:46;14.13;;;7.53;;
60243;SDS011;46106;51.468;5.814;2023-12-04T09:12:13;14.68;;;7.05;;
60243;SDS011;46106;51.468;5.814;2023-12-04T09:14:39;15.27;;;7.97;;
60243;SDS011;46106;51.468;5.814;2023-12-04T09:17:04;15.80;;;7.55;;
60243;SDS011;46106;51.468;5.814;2023-12-04T09:19:30;12.52;;;7.63;;
60243;SDS011;46106;51.468;5.814;2023-12-04T09:21:56;19.00;;;7.93;;
60243;SDS011;46106;51.468;5.814;2023-12-04T09:24:22;18.45;;;8.57;;
60243;SDS011;46106;51.468;5.814;2023-12-04T09:26:48;13.35;;;8.40;;
60243;SDS011;46106;51.468;5.814;2023-12-04T09:29:15;21.10;;;8.77;;
60243;SDS011;46106;51.468;5.814;2023-12-04T09:31:41;17.80;;;8.60;;
60243;SDS011;46106;51.468;5.814;2023-12-04T09:34:07;17.42;;;7.97;;
60243;SDS011;46106;51.468;5.814;2023-12-04T09:36:36;18.05;;;9.57;;
60243;SDS011;46106;51.468;5.814;2023-12-04T09:39:01;17.67;;;7.65;;
60243;SDS011;46106;51.468;5.814;2023-12-04T09:41:29;18.92;;;8.52;;
60243;SDS011;46106;51.468;5.814;2023-12-04T09:43:56;16.67;;;9.15;;
60243;SDS011;46106;51.468;5.814;2023-12-04T09:46:22;21.38;;;8.95;;
60243;SDS011;46106;51.468;5.814;2023-12-04T09:48:48;14.98;;;8.30;;
60243;SDS011;46106;51.468;5.814;2023-12-04T09:51:16;21.10;;;8.82;;
60243;SDS011;46106;51.468;5.814;2023-12-04T09:53:44;15.68;;;8.60;;
60243;SDS011;46106;51.468;5.814;2023-12-04T09:56:12;18.67;;;9.15;;
60243;SDS011;46106;51.468;5.814;2023-12-04T09:58:40;17.40;;;8.30;;
60243;SDS011;46106;51.468;5.814;2023-12-04T10:01:08;16.30;;;8.60;;
60243;SDS011;46106;51.468;5.814;2023-12-04T10:03:34;16.33;;;8.60;;
60243;SDS011;46106;51.468;5.814;2023-12-04T10:06:00;17.98;;;9.13;;
60243;SDS011;46106;51.468;5.814;2023-12-04T10:08:27;18.23;;;9.27;;
60243;SDS011;46106;51.468;5.814;2023-12-04T10:10:52;14.77;;;8.10;;
60243;SDS011;46106;51.468;5.814;2023-12-04T10:13:19;18.38;;;9.48;;
60243;SDS011;46106;51.468;5.814;2023-12-04T10:15:49;18.77;;;9.18;;
60243;SDS011;46106;51.468;5.814;2023-12-04T10:18:28;19.55;;;9.63;;
60243;SDS011;46106;51.468;5.814;2023-12-04T10:20:55;15.40;;;8.90;;
60243;SDS011;46106;51.468;5.814;2023-12-04T10:23:21;16.10;;;8.20;;
60243;SDS011;46106;51.468;5.814;2023-12-04T10:25:50;14.70;;;8.43;;
60243;SDS011;46106;51.468;5.814;2023-12-04T10:28:16;17.58;;;8.20;;
60243;SDS011;46106;51.468;5.814;2023-12-04T10:30:44;14.80;;;7.88;;
60243;SDS011;46106;51.468;5.814;2023-12-04T10:33:10;14.52;;;8.18;;
60243;SDS011;46106;51.468;5.814;2023-12-04T10:35:37;19.27;;;8.65;;
60243;SDS011;46106;51.468;5.814;2023-12-04T10:38:05;16.90;;;8.38;;
60243;SDS011;46106;51.468;5.814;2023-12-04T10:40:32;14.73;;;8.18;;
60243;SDS011;46106;51.468;5.814;2023-12-04T10:43:11;15.20;;;8.02;;
60243;SDS011;46106;51.468;5.814;2023-12-04T10:45:40;17.33;;;8.98;;
60243;SDS011;46106;51.468;5.814;2023-12-04T10:48:06;17.38;;;7.65;;
60243;SDS011;46106;51.468;5.814;2023-12-04T10:50:36;15.90;;;8.38;;
60243;SDS011;46106;51.468;5.814;2023-12-04T10:53:03;22.35;;;8.50;;
60243;SDS011;46106;51.468;5.814;2023-12-04T10:55:32;14.90;;;8.20;;
60243;SDS011;46106;51.468;5.814;2023-12-04T10:57:59;16.95;;;9.32;;
60243;SDS011;46106;51.468;5.814;2023-12-04T11:00:27;14.07;;;7.93;;
60243;SDS011;46106;51.468;5.814;2023-12-04T11:02:55;16.95;;;8.02;;
60243;SDS011;46106;51.468;5.814;2023-12-04T11:05:24;18.75;;;9.18;;
60243;SDS011;46106;51.468;5.814;2023-12-04T11:07:52;17.35;;;8.82;;
60243;SDS011;46106;51.468;5.814;2023-12-04T11:10:23;15.20;;;8.02;;
60243;SDS011;46106;51.468;5.814;2023-12-04T11:13:08;17.80;;;9.00;;
60243;SDS011;46106;51.468;5.814;2023-12-04T11:15:41;18.10;;;8.70;;
60243;SDS011;46106;51.468;5.814;2023-12-04T11:18:12;16.27;;;7.80;;
60243;SDS011;46106;51.468;5.814;2023-12-04T11:20:41;13.93;;;7.85;;
60243;SDS011;46106;51.468;5.814;2023-12-04T11:23:13;13.18;;;7.85;;
60243;SDS011;46106;51.468;5.814;2023-12-04T11:25:41;12.57;;;7.07;;
60243;SDS011;46106;51.468;5.814;2023-12-04T11:28:09;15.20;;;8.30;;
60243;SDS011;46106;51.468;5.814;2023-12-04T11:30:35;15.48;;;7.70;;
60243;SDS011;46106;51.468;5.814;2023-12-04T11:33:01;15.13;;;8.35;;
60243;SDS011;46106;51.468;5.814;2023-12-04T11:35:29;14.27;;;8.68;;
60243;SDS011;46106;51.468;5.814;2023-12-04T11:37:55;17.50;;;8.15;;
60243;SDS011;46106;51.468;5.814;2023-12-04T11:40:22;19.20;;;8.48;;
60243;SDS011;46106;51.468;5.814;2023-12-04T11:42:47;18.15;;;7.93;;
60243;SDS011;46106;51.468;5.814;2023-12-04T11:45:19;18.08;;;8.25;;
60243;SDS011;46106;51.468;5.814;2023-12-04T11:50:21;17.23;;;8.13;;
60243;SDS011;46106;51.468;5.814;2023-12-04T11:52:47;17.55;;;7.95;;
60243;SDS011;46106;51.468;5.814;2023-12-04T11:55:15;15.93;;;8.75;;
60243;SDS011;46106;51.468;5.814;2023-12-04T11:57:42;15.57;;;7.82;;
60243;SDS011;46106;51.468;5.814;2023-12-04T12:00:08;15.63;;;7.20;;
60243;SDS011;46106;51.468;5.814;2023-12-04T12:02:34;17.83;;;8.43;;
60243;SDS011;46106;51.468;5.814;2023-12-04T12:04:59;15.93;;;8.07;;
60243;SDS011;46106;51.468;5.814;2023-12-04T12:07:24;15.07;;;7.60;;
60243;SDS011;46106;51.468;5.814;2023-12-04T12:09:53;18.10;;;8.38;;
60243;SDS011;46106;51.468;5.814;2023-12-04T12:12:20;14.73;;;8.00;;
60243;SDS011;46106;51.468;5.814;2023-12-04T12:14:46;17.92;;;7.97;;
60243;SDS011;46106;51.468;5.814;2023-12-04T12:17:11;19.38;;;8.90;;
60243;SDS011;46106;51.468;5.814;2023-12-04T12:19:38;17.95;;;8.50;;
60243;SDS011;46106;51.468;5.814;2023-12-04T12:22:03;16.45;;;8.05;;
60243;SDS011;46106;51.468;5.814;2023-12-04T12:24:29;18.27;;;8.73;;
60243;SDS011;46106;51.468;5.814;2023-12-04T12:26:54;11.55;;;7.57;;
60243;SDS011;46106;51.468;5.814;2023-12-04T12:29:22;14.68;;;8.27;;
60243;SDS011;46106;51.468;5.814;2023-12-04T12:31:49;14.15;;;7.97;;
60243;SDS011;46106;51.468;5.814;2023-12-04T12:34:16;14.82;;;8.30;;
60243;SDS011;46106;51.468;5.814;2023-12-04T12:36:42;16.38;;;7.80;;
60243;SDS011;46106;51.468;5.814;2023-12-04T12:39:08;14.80;;;7.28;;
60243;SDS011;46106;51.468;5.814;2023-12-04T12:41:34;12.00;;;6.88;;
60243;SDS011;46106;51.468;5.814;2023-12-04T12:44:00;13.45;;;6.75;;
60243;SDS011;46106;51.468;5.814;2023-12-04T12:46:25;11.65;;;6.95;;
60243;SDS011;46106;51.468;5.814;2023-12-04T12:48:51;13.57;;;7.40;;
60243;SDS011;46106;51.468;5.814;2023-12-04T12:51:17;13.57;;;7.18;;
60243;SDS011;46106;51.468;5.814;2023-12-04T12:53:44;15.10;;;7.20;;
60243;SDS011;46106;51.468;5.814;2023-12-04T12:56:10;15.80;;;7.90;;
60243;SDS011;46106;51.468;5.814;2023-12-04T12:58:35;16.90;;;7.57;;
60243;SDS011;46106;51.468;5.814;2023-12-04T13:01:01;12.57;;;7.15;;
60243;SDS011;46106;51.468;5.814;2023-12-04T13:03:27;14.93;;;7.13;;
60243;SDS011;46106;51.468;5.814;2023-12-04T13:05:55;14.63;;;7.68;;
60243;SDS011;46106;51.468;5.814;2023-12-04T13:08:20;15.27;;;7.60;;
60243;SDS011;46106;51.468;5.814;2023-12-04T13:10:46;15.43;;;7.30;;
60243;SDS011;46106;51.468;5.814;2023-12-04T13:13:14;13.90;;;7.53;;
60243;SDS011;46106;51.468;5.814;2023-12-04T13:15:40;14.50;;;7.60;;
60243;SDS011;46106;51.468;5.814;2023-12-04T13:18:06;16.63;;;8.07;;
60243;SDS011;46106;51.468;5.814;2023-12-04T13:20:33;17.25;;;7.82;;
60243;SDS011;46106;51.468;5.814;2023-12-04T13:22:59;16.08;;;7.93;;
60243;SDS011;46106;51.468;5.814;2023-12-04T13:25:25;15.52;;;8.00;;
60243;SDS011;46106;51.468;5.814;2023-12-04T13:27:50;11.65;;;7.15;;
60243;SDS011;46106;51.468;5.814;2023-12-04T13:30:16;13.00;;;6.05;;
60243;SDS011;46106;51.468;5.814;2023-12-04T13:32:42;16.42;;;7.20;;
60243;SDS011;46106;51.468;5.814;2023-12-04T13:35:08;14.35;;;7.93;;
60243;SDS011;46106;51.468;5.814;2023-12-04T13:37:34;13.70;;;8.10;;
60243;SDS011;46106;51.468;5.814;2023-12-04T13:40:02;16.35;;;8.52;;
60243;SDS011;46106;51.468;5.814;2023-12-04T13:42:40;15.85;;;8.60;;
60243;SDS011;46106;51.468;5.814;2023-12-04T13:45:24;16.80;;;8.60;;
60243;SDS011;46106;51.468;5.814;2023-12-04T13:47:50;13.68;;;7.90;;
60243;SDS011;46106;51.468;5.814;2023-12-04T13:50:15;18.10;;;9.05;;
60243;SDS011;46106;51.468;5.814;2023-12-04T13:52:41;16.25;;;8.90;;
60243;SDS011;46106;51.468;5.814;2023-12-04T13:55:08;19.48;;;9.60;;
60243;SDS011;46106;51.468;5.814;2023-12-04T13:57:45;21.77;;;9.25;;
60243;SDS011;46106;51.468;5.814;2023-12-04T14:00:21;16.40;;;8.82;;
60243;SDS011;46106;51.468;5.814;2023-12-04T14:02:46;25.05;;;10.65;;
60243;SDS011;46106;51.468;5.814;2023-12-04T14:05:11;21.13;;;11.30;;
60243;SDS011;46106;51.468;5.814;2023-12-04T14:07:41;21.08;;;11.00;;
60243;SDS011;46106;51.468;5.814;2023-12-04T14:10:09;26.02;;;13.00;;
60243;SDS011;46106;51.468;5.814;2023-12-04T14:12:34;22.70;;;12.10;;
60243;SDS011;46106;51.468;5.814;2023-12-04T14:15:01;23.30;;;12.45;;
60243;SDS011;46106;51.468;5.814;2023-12-04T14:17:28;22.40;;;11.50;;
60243;SDS011;46106;51.468;5.814;2023-12-04T14:19:54;20.92;;;11.68;;
60243;SDS011;46106;51.468;5.814;2023-12-04T14:22:19;27.55;;;11.77;;
60243;SDS011;46106;51.468;5.814;2023-12-04T14:24:45;30.40;;;12.73;;
60243;SDS011;46106;51.468;5.814;2023-12-04T14:27:10;27.20;;;13.30;;
60243;SDS011;46106;51.468;5.814;2023-12-04T14:29:36;20.80;;;11.82;;